Weather at Prince Albert Glass Field

Public forecast

Using degrees Celsius for public forecast. Weather courtesy of forecast.io.

Current aviation weather report (METAR) for Prince Albert Glass Field

Retrieved 2021/02/28 17:00 UTC (48 minutes ago):

CYPA 281700Z 08004KT 15SM SCT034 OVC070 M18/M21 A3010 RMK SC3AS5 SLP236

Aviation forecast (TAF) for Prince Albert Glass Field

Forecast is more than 6 hours old.

Retrieved 2021/02/28 07:39 UTC (10 hours ago):

TAF CYPA 280638Z 2807/2819 27006KT P6SM SCT040 TEMPO 2807/2809 FEW020 BKN040 FM281200 32005KT P6SM FEW020 SCT100 BECMG 2814/2816 03007KT RMK NXT FCST BY 281300Z